Time;durP1;ratioP1;P1;durP2;ratioP2;P2;SDS_P1;SDS_P2;PMS_P1;PMS_P2;Temp;Humidity;BMP_temperature;BMP_pressure;BME280_temperature;BME280_humidity;BME280_pressure;Samples;Min_cycle;Max_cycle;Signal;HPM_P1;HPM_P2
2021/01/15 00:01:35;;;;;;;13.38;7.65;;;0.10;99.90;;;;;;5066465;28;20044;-82
2021/01/15 00:04:02;;;;;;;13.93;7.97;;;0.10;99.90;;;;;;5064160;28;20040;-83
2021/01/15 00:06:28;;;;;;;14.90;8.48;;;0.20;99.90;;;;;;5063795;28;20135;-80
2021/01/15 00:08:55;;;;;;;11.43;8.07;;;0.20;99.90;;;;;;5042681;28;20143;-79
2021/01/15 00:11:23;;;;;;;13.68;7.90;;;0.20;99.90;;;;;;5062378;28;20028;-79
2021/01/15 00:13:52;;;;;;;13.07;8.18;;;0.80;99.90;;;;;;5062839;28;20041;-79
2021/01/15 00:16:21;;;;;;;14.40;7.45;;;0.10;99.90;;;;;;5061508;28;20504;-80
2021/01/15 00:18:48;;;;;;;14.07;8.20;;;0.10;99.90;;;;;;5074370;28;20043;-80
2021/01/15 00:21:35;;;;;;;12.40;7.95;;;0.10;99.90;;;;;;5063598;28;20489;-80
2021/01/15 00:24:02;;;;;;;12.80;7.88;;;0.10;99.90;;;;;;5064995;28;20033;-79
2021/01/15 00:26:30;;;;;;;10.80;7.40;;;0.20;99.90;;;;;;5062648;28;20045;-81
2021/01/15 00:28:56;;;;;;;15.48;9.10;;;0.10;99.90;;;;;;5067359;28;20039;-81
2021/01/15 00:31:33;;;;;;;14.05;8.20;;;0.20;99.90;;;;;;5065623;28;20041;-81
2021/01/15 00:33:59;;;;;;;14.25;8.55;;;0.20;99.90;;;;;;5069947;28;20463;-81
2021/01/15 00:36:25;;;;;;;14.25;8.57;;;0.20;99.90;;;;;;5062015;28;20102;-81
2021/01/15 00:38:51;;;;;;;15.40;8.50;;;0.20;99.90;;;;;;5063906;28;20036;-82
2021/01/15 00:41:17;;;;;;;15.93;8.98;;;0.30;99.90;;;;;;5066695;28;20055;-81
2021/01/15 00:43:44;;;;;;;13.52;8.27;;;0.20;99.90;;;;;;5059847;28;20124;-82
2021/01/15 00:46:27;;;;;;;12.77;8.07;;;0.30;99.90;;;;;;5063591;28;20119;-81
2021/01/15 00:48:56;;;;;;;12.48;7.55;;;0.30;99.90;;;;;;5062303;28;20048;-81
2021/01/15 00:51:22;;;;;;;12.45;8.15;;;0.30;99.90;;;;;;5051062;28;20095;-79
2021/01/15 00:53:47;;;;;;;15.07;8.60;;;0.40;99.90;;;;;;5061725;28;20033;-81
2021/01/15 00:56:17;;;;;;;12.43;8.55;;;0.40;99.90;;;;;;5054435;28;20051;-82
2021/01/15 00:58:47;;;;;;;14.00;8.60;;;0.40;99.90;;;;;;5076509;28;20470;-80
2021/01/15 01:01:15;;;;;;;14.48;8.35;;;0.40;99.90;;;;;;5069055;28;20040;-82
2021/01/15 01:03:41;;;;;;;13.23;8.32;;;0.40;99.90;;;;;;5060997;28;20040;-80
2021/01/15 01:06:16;;;;;;;12.50;8.38;;;0.40;99.90;;;;;;5063044;28;20049;-81
2021/01/15 01:08:42;;;;;;;13.63;8.13;;;0.40;99.90;;;;;;5052555;28;20107;-79
2021/01/15 01:11:12;;;;;;;;;;;0.40;99.90;;;;;;5067641;28;20039;-79
2021/01/15 01:13:38;;;;;;;14.20;8.27;;;0.40;99.90;;;;;;5057466;28;19917;-81
2021/01/15 01:16:04;;;;;;;12.70;7.78;;;0.40;99.90;;;;;;5068023;28;20453;-80
2021/01/15 01:18:32;;;;;;;11.85;7.55;;;0.50;99.90;;;;;;5064099;28;20028;-79
2021/01/15 01:20:58;;;;;;;12.15;7.93;;;0.50;99.90;;;;;;5086513;28;20082;-80
2021/01/15 01:23:24;;;;;;;12.15;7.80;;;0.50;99.90;;;;;;5061499;28;20438;-82
2021/01/15 01:25:50;;;;;;;12.52;8.05;;;0.50;99.90;;;;;;5071929;28;20366;-80
2021/01/15 01:28:17;;;;;;;;;;;0.50;99.90;;;;;;5064808;28;20043;-82
2021/01/15 01:30:44;;;;;;;13.68;8.40;;;0.40;99.90;;;;;;5067770;28;20269;-81
2021/01/15 01:33:10;;;;;;;13.45;7.75;;;0.40;99.90;;;;;;5059562;28;20496;-82
2021/01/15 01:35:35;;;;;;;12.63;7.85;;;0.40;99.90;;;;;;5064080;28;20045;-79
2021/01/15 01:38:01;;;;;;;10.32;7.85;;;0.40;99.90;;;;;;5060998;28;20111;-81
2021/01/15 01:40:27;;;;;;;12.82;8.07;;;0.40;99.90;;;;;;5064484;28;20033;-83
2021/01/15 01:42:53;;;;;;;13.43;8.43;;;0.40;99.90;;;;;;5045009;28;20111;-84
2021/01/15 01:45:21;;;;;;;11.63;7.75;;;0.40;99.90;;;;;;5050826;28;20071;-81
2021/01/15 01:47:46;;;;;;;11.50;8.13;;;0.30;99.90;;;;;;5060410;28;20046;-81
2021/01/15 01:50:13;;;;;;;12.73;7.95;;;0.30;99.90;;;;;;5066146;28;20068;-82
2021/01/15 01:52:39;;;;;;;11.57;7.47;;;0.40;99.90;;;;;;5061422;28;20048;-82
2021/01/15 01:55:06;;;;;;;11.75;8.27;;;0.30;99.90;;;;;;5064249;28;20184;-81
2021/01/15 01:57:32;;;;;;;13.35;7.97;;;0.30;99.90;;;;;;5062271;28;20037;-84
2021/01/15 01:59:58;;;;;;;11.27;7.40;;;0.30;99.90;;;;;;5057209;28;20067;-81
2021/01/15 02:02:24;;;;;;;14.55;8.13;;;0.30;99.90;;;;;;5067450;28;20064;-81
2021/01/15 02:04:50;;;;;;;10.63;7.75;;;0.40;99.90;;;;;;5067130;28;20079;-82
2021/01/15 02:07:15;;;;;;;12.60;8.00;;;0.40;99.90;;;;;;5066019;28;20055;-82
2021/01/15 02:09:56;;;;;;;13.07;7.90;;;0.40;99.90;;;;;;5058287;28;20504;-82
2021/01/15 02:12:53;;;;;;;13.70;7.90;;;0.50;99.90;;;;;;5064641;28;20535;-82
2021/01/15 02:15:27;;;;;;;13.70;8.32;;;0.50;99.90;;;;;;5061784;28;20501;-84
2021/01/15 02:18:02;;;;;;;13.35;8.10;;;0.50;99.90;;;;;;5069805;28;20440;-81
2021/01/15 02:20:30;;;;;;;14.63;8.85;;;0.50;99.90;;;;;;5064141;28;20469;-83
2021/01/15 02:23:12;;;;;;;10.70;7.05;;;0.60;99.90;;;;;;5066397;28;20094;-81
2021/01/15 02:25:50;;;;;;;11.95;7.22;;;0.60;99.90;;;;;;5063129;28;20037;-79
2021/01/15 02:28:38;;;;;;;11.18;7.32;;;0.60;99.90;;;;;;5061682;28;20075;-78
2021/01/15 02:31:21;;;;;;;14.48;8.60;;;0.60;99.90;;;;;;5063021;28;20036;-82
2021/01/15 02:34:11;;;;;;;11.60;7.47;;;0.60;99.90;;;;;;5066403;28;20033;-78
2021/01/15 02:36:52;;;;;;;12.77;8.10;;;0.60;99.90;;;;;;5058965;28;20470;-79
2021/01/15 02:39:55;;;;;;;13.35;8.63;;;0.60;99.90;;;;;;5063725;28;20093;-80
2021/01/15 02:42:25;;;;;;;12.93;7.93;;;0.60;99.90;;;;;;5059740;28;20033;-77
2021/01/15 02:44:53;;;;;;;13.57;7.57;;;0.60;99.90;;;;;;5070761;28;20120;-80
2021/01/15 02:47:28;;;;;;;11.80;7.40;;;0.50;99.90;;;;;;5058154;28;20037;-78
2021/01/15 02:49:57;;;;;;;12.52;7.90;;;0.50;99.90;;;;;;5070152;28;20116;-79
2021/01/15 02:52:24;;;;;;;11.82;8.07;;;0.50;99.90;;;;;;5070569;28;20043;-79
2021/01/15 02:54:50;;;;;;;13.10;8.02;;;0.60;99.90;;;;;;5071340;28;20068;-81
2021/01/15 02:57:16;;;;;;;13.52;7.97;;;0.50;99.90;;;;;;5072342;28;20109;-80
2021/01/15 02:59:42;;;;;;;13.25;7.95;;;0.50;99.90;;;;;;5064751;28;20055;-81
2021/01/15 03:02:17;;;;;;;13.18;7.28;;;0.50;99.90;;;;;;5071656;28;20092;-79
2021/01/15 03:04:58;;;;;;;11.60;7.72;;;0.60;99.90;;;;;;5066879;28;20462;-82
2021/01/15 03:07:25;;;;;;;10.27;6.75;;;0.60;99.90;;;;;;5055727;28;20041;-79
2021/01/15 03:09:54;;;;;;;13.52;7.93;;;0.60;99.90;;;;;;5092116;28;20076;-81
2021/01/15 03:12:24;;;;;;;13.32;7.53;;;0.70;99.90;;;;;;5065124;28;20087;-80
2021/01/15 03:14:52;;;;;;;10.63;8.05;;;0.70;99.90;;;;;;5062519;28;20044;-80
2021/01/15 03:17:23;;;;;;;13.63;8.27;;;0.70;99.90;;;;;;5067416;28;20512;-79
2021/01/15 03:19:50;;;;;;;14.07;8.70;;;0.80;99.90;;;;;;5064128;28;20037;-80
2021/01/15 03:22:19;;;;;;;11.65;7.70;;;0.60;99.90;;;;;;5072199;28;20033;-79
2021/01/15 03:25:05;;;;;;;14.40;8.48;;;0.60;99.90;;;;;;5066019;28;20046;-80
2021/01/15 03:27:49;;;;;;;18.90;9.30;;;0.60;99.90;;;;;;5071222;28;20045;-81
2021/01/15 03:30:21;;;;;;;14.48;8.90;;;0.60;99.90;;;;;;5072193;28;20047;-79
2021/01/15 03:32:48;;;;;;;15.73;8.55;;;0.60;99.90;;;;;;5069644;28;20432;-81
2021/01/15 03:35:23;;;;;;;15.23;8.85;;;0.50;99.90;;;;;;5062885;28;20450;-81
2021/01/15 03:38:00;;;;;;;14.10;8.55;;;0.50;99.90;;;;;;5072905;28;20044;-81
2021/01/15 03:40:34;;;;;;;12.52;8.30;;;0.60;99.90;;;;;;5072297;28;20040;-80
2021/01/15 03:43:00;;;;;;;15.05;8.40;;;0.60;99.90;;;;;;5071697;28;20398;-79
2021/01/15 03:45:27;;;;;;;14.02;8.65;;;0.60;99.90;;;;;;5066452;28;20389;-80
2021/01/15 03:47:54;;;;;;;14.20;8.57;;;0.60;99.90;;;;;;5073602;28;20032;-81
2021/01/15 03:50:20;;;;;;;12.65;8.85;;;0.50;99.90;;;;;;5066141;28;20044;-81
2021/01/15 03:52:47;;;;;;;15.85;9.68;;;0.50;99.90;;;;;;5057146;28;20036;-82
2021/01/15 03:55:13;;;;;;;16.02;9.55;;;0.50;99.90;;;;;;5064764;28;20041;-81
2021/01/15 03:57:39;;;;;;;13.15;8.35;;;0.50;99.90;;;;;;5058486;28;20044;-78
2021/01/15 04:00:07;;;;;;;14.20;8.60;;;0.50;99.90;;;;;;5068942;28;20110;-80
2021/01/15 04:02:32;;;;;;;14.77;9.20;;;0.50;99.90;;;;;;5066952;28;20116;-81
2021/01/15 04:04:58;;;;;;;15.88;8.70;;;0.50;99.90;;;;;;5066729;28;20040;-77
2021/01/15 04:07:25;;;;;;;15.25;9.60;;;0.50;99.90;;;;;;5070240;28;20504;-79
2021/01/15 04:09:51;;;;;;;11.90;8.65;;;0.40;99.90;;;;;;5070451;28;20428;-79
2021/01/15 04:12:18;;;;;;;17.08;10.25;;;0.40;99.90;;;;;;5069313;28;20146;-78
2021/01/15 04:14:44;;;;;;;16.63;9.43;;;0.40;99.90;;;;;;5065702;28;20060;-80
2021/01/15 04:17:11;;;;;;;14.18;9.00;;;0.30;99.90;;;;;;5040196;28;20032;-79
2021/01/15 04:19:37;;;;;;;14.13;8.80;;;0.30;99.90;;;;;;5068017;28;20120;-83
2021/01/15 04:22:03;;;;;;;15.57;9.27;;;0.40;99.90;;;;;;5072217;28;20170;-83
2021/01/15 04:24:28;;;;;;;12.98;9.35;;;0.40;99.90;;;;;;5066839;28;20572;-80
2021/01/15 04:26:58;;;;;;;13.85;8.55;;;0.40;99.90;;;;;;5070862;28;20502;-82
2021/01/15 04:29:25;;;;;;;18.85;9.50;;;0.50;99.90;;;;;;5063461;28;20039;-82
2021/01/15 04:31:51;;;;;;;15.05;9.13;;;0.40;99.90;;;;;;5069949;28;20032;-80
2021/01/15 04:34:17;;;;;;;12.88;8.77;;;0.40;99.90;;;;;;5071636;28;20032;-84
2021/01/15 04:36:43;;;;;;;14.77;8.93;;;0.50;99.90;;;;;;5064939;28;20041;-81
2021/01/15 04:39:09;;;;;;;13.80;8.88;;;0.50;99.90;;;;;;5069990;28;20508;-82
2021/01/15 04:41:37;;;;;;;15.90;9.48;;;0.40;99.90;;;;;;5062172;28;20412;-82
2021/01/15 04:44:03;;;;;;;13.63;8.43;;;0.50;99.90;;;;;;5073493;28;20040;-81
2021/01/15 04:46:29;;;;;;;15.38;8.85;;;0.40;99.90;;;;;;5054334;28;20422;-83
2021/01/15 04:48:57;;;;;;;13.88;8.80;;;0.40;99.90;;;;;;5059810;28;20062;-82
2021/01/15 04:51:27;;;;;;;15.63;9.25;;;0.50;99.90;;;;;;5071154;28;20469;-81
2021/01/15 04:53:53;;;;;;;13.30;9.63;;;0.50;99.90;;;;;;5062336;28;20413;-82
2021/01/15 04:56:25;;;;;;;17.35;9.50;;;0.50;99.90;;;;;;5070526;28;20044;-81
2021/01/15 04:58:51;;;;;;;15.30;9.00;;;0.50;99.90;;;;;;5068106;28;20033;-81
2021/01/15 05:01:20;;;;;;;15.10;8.50;;;0.50;99.90;;;;;;5084369;28;20037;-80
2021/01/15 05:03:46;;;;;;;15.57;9.40;;;0.50;99.90;;;;;;5064441;28;20079;-81
2021/01/15 05:06:20;;;;;;;13.65;8.52;;;0.50;99.90;;;;;;5062043;28;20102;-81
2021/01/15 05:08:49;;;;;;;15.40;8.93;;;0.50;99.90;;;;;;5057782;28;20500;-81
2021/01/15 05:11:17;;;;;;;12.75;8.93;;;0.90;99.90;;;;;;5067944;28;20036;-82
2021/01/15 05:13:43;;;;;;;15.18;9.18;;;0.40;99.90;;;;;;5085079;28;20040;-80
2021/01/15 05:16:09;;;;;;;15.43;9.00;;;0.50;99.90;;;;;;5060187;28;20549;-80
2021/01/15 05:18:40;;;;;;;13.77;8.70;;;0.50;99.90;;;;;;5069275;28;20040;-79
2021/01/15 05:21:08;;;;;;;14.73;9.05;;;0.50;99.90;;;;;;5064680;28;20478;-80
2021/01/15 05:23:34;;;;;;;14.13;8.93;;;0.50;99.90;;;;;;5068408;28;20040;-79
2021/01/15 05:26:00;;;;;;;13.75;8.73;;;0.50;99.90;;;;;;5066725;28;20489;-81
2021/01/15 05:28:26;;;;;;;13.82;8.63;;;0.40;99.90;;;;;;5071359;28;20048;-80
2021/01/15 05:30:58;;;;;;;14.55;8.98;;;0.50;99.90;;;;;;5066841;28;20041;-80
2021/01/15 05:33:24;;;;;;;16.73;9.95;;;0.50;99.90;;;;;;5060478;28;20190;-81
2021/01/15 05:35:53;;;;;;;14.88;8.73;;;0.40;99.90;;;;;;5060419;28;20119;-80
2021/01/15 05:38:20;;;;;;;13.48;8.75;;;0.40;99.90;;;;;;5068103;28;20109;-81
2021/01/15 05:40:55;;;;;;;14.00;9.35;;;0.40;99.90;;;;;;5070603;28;20498;-80
2021/01/15 05:43:27;;;;;;;15.02;9.77;;;0.40;99.90;;;;;;5065426;28;20040;-84
2021/01/15 05:46:08;;;;;;;14.95;8.45;;;0.50;99.90;;;;;;5069075;28;20108;-81
2021/01/15 05:48:35;;;;;;;13.05;8.57;;;0.50;99.90;;;;;;5077405;28;20032;-81
2021/01/15 05:51:02;;;;;;;14.13;8.43;;;0.60;99.90;;;;;;5082876;28;20085;-80
2021/01/15 05:53:41;;;;;;;14.50;8.82;;;0.60;99.90;;;;;;5076897;28;20036;-78
2021/01/15 05:56:07;;;;;;;12.27;8.10;;;0.70;99.90;;;;;;5068470;28;20039;-80
2021/01/15 05:58:34;;;;;;;14.10;8.60;;;0.70;99.90;;;;;;5068653;28;20447;-81
2021/01/15 06:00:59;;;;;;;;;;;0.70;99.90;;;;;;5070178;28;20370;-80
2021/01/15 06:03:26;;;;;;;13.32;8.68;;;0.70;99.90;;;;;;5058013;28;19927;-80
2021/01/15 06:05:52;;;;;;;13.18;8.50;;;0.70;99.90;;;;;;5062610;28;20581;-80
2021/01/15 06:08:21;;;;;;;15.35;9.20;;;0.70;99.90;;;;;;5060393;28;20056;-79
2021/01/15 06:10:48;;;;;;;14.35;8.27;;;0.60;99.90;;;;;;5070140;28;20162;-81
2021/01/15 06:13:34;;;;;;;14.57;8.50;;;0.60;99.90;;;;;;5064341;28;20394;-81
2021/01/15 06:16:00;;;;;;;12.87;7.97;;;0.60;99.90;;;;;;5047573;28;20036;-80
2021/01/15 06:18:32;;;;;;;13.32;8.25;;;0.60;99.90;;;;;;5044113;28;20440;-79
2021/01/15 06:21:08;;;;;;;;;;;1.00;99.90;;;;;;5069168;28;20082;-81
2021/01/15 06:23:42;;;;;;;12.75;8.38;;;0.60;99.90;;;;;;5065686;28;19932;-81
2021/01/15 06:26:10;;;;;;;12.57;8.43;;;0.90;99.90;;;;;;5049408;28;20029;-82
2021/01/15 06:28:38;;;;;;;14.27;8.50;;;0.60;99.90;;;;;;5063644;28;20056;-81
2021/01/15 06:31:07;;;;;;;13.07;8.80;;;0.60;99.90;;;;;;5066989;28;20040;-79
2021/01/15 06:33:34;;;;;;;14.73;8.23;;;0.70;99.90;;;;;;5066453;28;20063;-80
2021/01/15 06:36:00;;;;;;;13.13;7.43;;;0.70;99.90;;;;;;5067449;28;20024;-80
2021/01/15 06:38:28;;;;;;;10.88;7.03;;;0.70;99.90;;;;;;5067900;28;20043;-80
2021/01/15 06:41:00;;;;;;;12.05;6.80;;;0.70;99.90;;;;;;5054688;28;20166;-79
2021/01/15 06:43:35;;;;;;;11.13;6.68;;;0.70;99.90;;;;;;5069595;28;20116;-78
2021/01/15 06:46:04;;;;;;;10.52;6.20;;;0.70;99.90;;;;;;5061471;28;20506;-82
2021/01/15 06:48:38;;;;;;;10.25;7.07;;;0.70;99.90;;;;;;5049846;28;20041;-81
2021/01/15 06:51:05;;;;;;;10.20;7.13;;;0.70;99.90;;;;;;5086260;28;20415;-80
2021/01/15 06:53:38;;;;;;;8.68;6.65;;;0.70;99.90;;;;;;5073991;28;20068;-81
2021/01/15 06:56:06;;;;;;;11.02;6.75;;;0.60;99.90;;;;;;5056881;28;20037;-82
2021/01/15 06:58:41;;;;;;;9.55;6.75;;;0.60;99.90;;;;;;5063611;28;20194;-80
2021/01/15 07:01:16;;;;;;;7.85;6.65;;;0.60;99.90;;;;;;5064296;28;20115;-79
2021/01/15 07:03:48;;;;;;;9.48;6.40;;;0.60;99.90;;;;;;5065482;28;20037;-80
2021/01/15 07:06:27;;;;;;;11.93;6.90;;;0.60;99.90;;;;;;5055858;28;20060;-80
2021/01/15 07:08:54;;;;;;;10.82;6.75;;;0.60;99.90;;;;;;5060936;28;20041;-80
2021/01/15 07:11:25;;;;;;;9.43;5.75;;;0.60;99.90;;;;;;5068347;28;20052;-80
2021/01/15 07:13:56;;;;;;;10.75;6.07;;;0.60;99.90;;;;;;5059239;28;20067;-80
2021/01/15 07:16:32;;;;;;;10.60;6.25;;;0.60;99.90;;;;;;5056338;28;20120;-79
2021/01/15 07:19:12;;;;;;;10.32;6.45;;;0.50;99.90;;;;;;5072394;28;20382;-81
2021/01/15 07:21:39;;;;;;;9.82;5.97;;;0.50;99.90;;;;;;5070860;28;20117;-82
2021/01/15 07:24:09;;;;;;;9.77;5.72;;;0.60;99.90;;;;;;5072525;28;20039;-81
2021/01/15 07:26:41;;;;;;;10.65;6.32;;;0.50;99.90;;;;;;5059044;28;20041;-80
2021/01/15 07:29:13;;;;;;;11.45;6.05;;;0.50;99.90;;;;;;5060934;28;20114;-83
2021/01/15 07:31:50;;;;;;;7.78;5.30;;;0.50;99.90;;;;;;5057371;28;20120;-81
2021/01/15 07:34:22;;;;;;;10.48;6.07;;;0.60;99.90;;;;;;5086930;28;20040;-83
2021/01/15 07:36:49;;;;;;;9.15;5.97;;;0.50;99.90;;;;;;5075009;28;20474;-82
2021/01/15 07:39:25;;;;;;;8.38;5.95;;;0.60;99.90;;;;;;5070331;28;20106;-83
2021/01/15 07:41:54;;;;;;;10.45;6.13;;;0.60;99.90;;;;;;5062180;28;20521;-82
2021/01/15 07:44:25;;;;;;;10.23;6.20;;;0.50;99.90;;;;;;5065681;28;20108;-82
2021/01/15 07:47:20;;;;;;;9.30;6.07;;;0.60;99.90;;;;;;5067173;28;20452;-81
2021/01/15 07:49:47;;;;;;;10.00;6.20;;;0.60;99.90;;;;;;5069334;28;20485;-81
2021/01/15 07:52:14;;;;;;;9.63;6.75;;;0.60;99.90;;;;;;5058536;28;20124;-80
2021/01/15 07:54:50;;;;;;;10.50;6.22;;;0.60;99.90;;;;;;5067851;28;20032;-81
2021/01/15 07:57:19;;;;;;;9.95;7.00;;;0.70;99.90;;;;;;5067273;28;20041;-82
2021/01/15 07:59:46;;;;;;;9.93;6.60;;;0.70;99.90;;;;;;5071550;28;20039;-81
2021/01/15 08:02:16;;;;;;;11.13;6.28;;;0.70;99.90;;;;;;5065499;28;20467;-80
2021/01/15 08:04:43;;;;;;;11.52;6.90;;;0.70;99.90;;;;;;5067601;28;20041;-81
2021/01/15 08:07:12;;;;;;;10.55;6.72;;;0.70;99.90;;;;;;5055820;28;20401;-81
2021/01/15 08:09:42;;;;;;;12.48;7.13;;;0.70;99.90;;;;;;5072969;28;20386;-81
2021/01/15 08:12:08;;;;;;;11.25;7.22;;;0.70;99.90;;;;;;5070857;28;20040;-80
2021/01/15 08:14:34;;;;;;;;;;;0.70;99.90;;;;;;5055793;28;20044;-81
2021/01/15 08:17:10;;;;;;;11.77;6.53;;;0.80;99.90;;;;;;5052169;28;19921;-81
2021/01/15 08:19:37;;;;;;;10.60;6.43;;;0.70;99.90;;;;;;5062581;28;20036;-81
2021/01/15 08:22:07;;;;;;;10.70;7.05;;;0.80;99.90;;;;;;5053307;28;20481;-81
2021/01/15 08:24:43;;;;;;;9.90;7.10;;;0.80;99.90;;;;;;5069328;28;20388;-81
2021/01/15 08:27:18;;;;;;;10.27;6.60;;;0.80;99.90;;;;;;5073975;28;20044;-81
2021/01/15 08:29:44;;;;;;;11.43;6.88;;;0.80;99.90;;;;;;5063340;28;20436;-81
2021/01/15 08:32:11;;;;;;;10.60;5.82;;;0.80;99.90;;;;;;5054163;28;20369;-81
2021/01/15 08:34:38;;;;;;;9.80;6.20;;;0.90;99.90;;;;;;5071290;28;20473;-81
2021/01/15 08:37:12;;;;;;;11.02;6.32;;;0.80;99.90;;;;;;5056961;28;20682;-82
2021/01/15 08:39:53;;;;;;;10.57;6.50;;;0.90;99.90;;;;;;5069885;28;20060;-81
2021/01/15 08:42:19;;;;;;;10.23;5.90;;;0.90;99.90;;;;;;5053327;28;20037;-81
2021/01/15 08:44:50;;;;;;;10.07;6.20;;;0.90;99.90;;;;;;5062791;28;20044;-80
2021/01/15 08:47:17;;;;;;;10.15;5.97;;;0.90;99.90;;;;;;5064727;28;20033;-81
2021/01/15 08:49:57;;;;;;;8.82;5.82;;;0.90;99.90;;;;;;5070948;28;20032;-79
2021/01/15 08:52:32;;;;;;;10.40;5.40;;;1.00;99.90;;;;;;5051949;28;20037;-80
2021/01/15 08:55:03;;;;;;;13.43;6.00;;;1.00;99.90;;;;;;5065584;28;20072;-83
2021/01/15 08:57:30;;;;;;;8.95;5.35;;;1.00;99.90;;;;;;5045991;28;20496;-78
2021/01/15 09:00:06;;;;;;;8.55;5.25;;;1.00;99.90;;;;;;5063088;28;20462;-79
2021/01/15 09:02:38;;;;;;;7.97;5.13;;;1.10;99.90;;;;;;5073335;28;20040;-79
2021/01/15 09:05:24;;;;;;;13.25;5.13;;;1.10;99.90;;;;;;5055624;28;20490;-79
2021/01/15 09:07:51;;;;;;;8.18;4.40;;;1.20;99.90;;;;;;5065152;28;20109;-80
2021/01/15 09:10:18;;;;;;;8.27;5.10;;;1.20;99.90;;;;;;5065940;28;20521;-79
2021/01/15 09:12:55;;;;;;;7.13;5.13;;;1.20;99.90;;;;;;5060703;28;20044;-79
2021/01/15 09:15:26;;;;;;;8.18;5.03;;;1.30;99.90;;;;;;5064757;28;20033;-79
2021/01/15 09:17:57;;;;;;;7.80;4.93;;;1.30;99.90;;;;;;5057735;28;20512;-80
2021/01/15 09:20:29;;;;;;;9.23;4.78;;;1.40;99.90;;;;;;5067447;28;20474;-80
2021/01/15 09:22:54;;;;;;;7.72;4.47;;;1.40;99.90;;;;;;5067338;28;20045;-79
2021/01/15 09:25:21;;;;;;;9.43;4.43;;;1.40;99.90;;;;;;5069682;28;20043;-80
2021/01/15 09:27:47;;;;;;;9.98;4.93;;;1.50;99.90;;;;;;5065379;28;20044;-80
2021/01/15 09:30:14;;;;;;;12.13;4.75;;;1.50;99.90;;;;;;5071031;28;20063;-80
2021/01/15 09:32:43;;;;;;;8.80;5.10;;;1.50;99.90;;;;;;5060794;28;20120;-80
2021/01/15 09:35:11;;;;;;;10.07;4.75;;;1.50;99.90;;;;;;5068556;28;20044;-79
2021/01/15 09:37:37;;;;;;;8.98;4.97;;;1.50;99.90;;;;;;5078106;28;20044;-80
2021/01/15 09:40:03;;;;;;;;;;;1.50;99.90;;;;;;5067261;28;20414;-80
2021/01/15 09:42:29;;;;;;;8.40;5.10;;;1.50;99.90;;;;;;5071132;28;19946;-80
2021/01/15 09:44:55;;;;;;;9.88;5.35;;;1.50;99.90;;;;;;5065494;28;20396;-80
2021/01/15 09:47:21;;;;;;;8.80;5.22;;;1.50;99.90;;;;;;5068472;28;20040;-79
2021/01/15 09:49:47;;;;;;;8.52;4.70;;;1.50;99.90;;;;;;5065973;28;20033;-78
2021/01/15 09:52:13;;;;;;;7.65;4.65;;;1.50;99.90;;;;;;5068694;28;20437;-80
2021/01/15 09:54:39;;;;;;;12.18;5.30;;;2.00;99.90;;;;;;5063422;28;20040;-79
2021/01/15 09:57:05;;;;;;;8.05;4.85;;;1.50;99.90;;;;;;5057739;28;20094;-79
2021/01/15 09:59:31;;;;;;;9.30;5.20;;;1.50;99.90;;;;;;5065252;28;20036;-79
2021/01/15 10:01:57;;;;;;;8.45;5.32;;;1.50;99.90;;;;;;5053464;28;20112;-79
2021/01/15 10:04:23;;;;;;;9.30;4.97;;;2.20;99.90;;;;;;5068636;28;20033;-79
2021/01/15 10:06:48;;;;;;;9.60;5.70;;;1.50;99.90;;;;;;5069021;28;20405;-79
2021/01/15 10:09:15;;;;;;;8.38;5.78;;;1.50;99.90;;;;;;5059620;28;20047;-80
2021/01/15 10:11:45;;;;;;;8.15;4.95;;;1.50;99.90;;;;;;5062209;28;20041;-80
2021/01/15 10:14:12;;;;;;;9.20;5.30;;;1.50;99.90;;;;;;5059687;28;20036;-80
2021/01/15 10:16:47;;;;;;;10.52;5.50;;;1.50;99.90;;;;;;5061280;28;20076;-78
2021/01/15 10:19:13;;;;;;;8.65;5.82;;;1.50;99.90;;;;;;5063669;28;20101;-80
2021/01/15 10:21:39;;;;;;;8.45;6.15;;;1.50;99.90;;;;;;5064376;28;20034;-79
2021/01/15 10:24:07;;;;;;;11.93;6.90;;;1.50;99.90;;;;;;5054871;28;20071;-79
2021/01/15 10:26:35;;;;;;;9.68;6.43;;;1.60;99.90;;;;;;5061119;28;20090;-80
2021/01/15 10:29:06;;;;;;;9.60;6.35;;;1.60;99.90;;;;;;5066180;28;20116;-79
2021/01/15 10:31:33;;;;;;;9.32;5.97;;;1.60;99.90;;;;;;5063065;28;20036;-80
2021/01/15 10:34:01;;;;;;;9.93;5.97;;;1.70;99.90;;;;;;5056276;28;20041;-75
2021/01/15 10:36:27;;;;;;;8.23;5.55;;;1.70;99.90;;;;;;5063658;28;20090;-77
2021/01/15 10:38:53;;;;;;;9.48;6.68;;;1.60;99.90;;;;;;5067742;28;20087;-76
2021/01/15 10:41:30;;;;;;;;;;;1.60;99.90;;;;;;5060474;28;20040;-77
2021/01/15 10:43:56;;;;;;;10.52;6.10;;;1.60;99.90;;;;;;5059309;28;19916;-77
2021/01/15 10:46:32;;;;;;;10.25;6.25;;;1.70;99.90;;;;;;5055526;28;20351;-77
2021/01/15 10:48:58;;;;;;;12.23;6.55;;;1.70;99.90;;;;;;5063470;28;20056;-76
2021/01/15 10:51:23;;;;;;;9.05;5.47;;;1.70;99.90;;;;;;5068055;28;20534;-78
2021/01/15 10:53:49;;;;;;;11.20;6.07;;;1.70;99.90;;;;;;5060614;28;20036;-76
2021/01/15 10:56:16;;;;;;;10.32;6.47;;;1.70;99.90;;;;;;5046550;28;20044;-75
2021/01/15 10:58:42;;;;;;;12.63;6.85;;;1.70;99.90;;;;;;5068477;28;20211;-75
2021/01/15 11:01:07;;;;;;;9.23;6.07;;;1.60;99.90;;;;;;5065723;28;20033;-76
2021/01/15 11:03:33;;;;;;;10.88;6.28;;;1.70;99.90;;;;;;5062160;28;20040;-76
2021/01/15 11:05:59;;;;;;;9.40;5.82;;;1.70;99.90;;;;;;5070233;28;20048;-74
2021/01/15 11:08:25;;;;;;;9.90;5.72;;;1.80;99.90;;;;;;5067957;28;20032;-75
2021/01/15 11:10:50;;;;;;;10.68;6.90;;;1.70;99.90;;;;;;5065476;28;20401;-75
2021/01/15 11:13:16;;;;;;;11.68;5.97;;;1.70;99.90;;;;;;5088148;28;20132;-75
2021/01/15 11:15:42;;;;;;;11.10;5.63;;;1.70;99.90;;;;;;5069426;28;20405;-75
2021/01/15 11:18:08;;;;;;;9.32;5.82;;;1.70;99.90;;;;;;5066294;28;20529;-75
2021/01/15 11:20:34;;;;;;;13.57;6.95;;;1.70;99.90;;;;;;5066509;28;20067;-75
2021/01/15 11:23:00;;;;;;;10.40;5.93;;;1.70;99.90;;;;;;5060422;28;20049;-75
2021/01/15 11:25:25;;;;;;;11.23;6.75;;;1.70;99.90;;;;;;5065394;28;20111;-75
2021/01/15 11:27:51;;;;;;;13.07;6.45;;;1.70;99.90;;;;;;5070573;28;20037;-75
2021/01/15 11:30:17;;;;;;;9.45;6.22;;;1.70;99.90;;;;;;5054670;28;20032;-75
2021/01/15 11:32:43;;;;;;;10.23;6.22;;;1.70;99.90;;;;;;5070214;28;20043;-75
2021/01/15 11:35:09;;;;;;;9.98;6.25;;;1.70;99.90;;;;;;5068713;28;20040;-77
2021/01/15 11:37:35;;;;;;;;;;;1.70;99.90;;;;;;5064083;28;20101;-76
2021/01/15 11:40:10;;;;;;;10.93;5.75;;;1.70;99.90;;;;;;5056022;28;20007;-75
2021/01/15 11:42:36;;;;;;;9.60;6.47;;;1.60;99.90;;;;;;5061357;28;20512;-76
2021/01/15 11:45:03;;;;;;;10.07;6.68;;;1.70;99.90;;;;;;5084325;28;20062;-77
2021/01/15 11:47:29;;;;;;;9.52;6.30;;;1.70;99.90;;;;;;5068313;28;20117;-76
2021/01/15 11:49:55;;;;;;;9.63;6.60;;;1.70;99.90;;;;;;5058980;28;20107;-76
2021/01/15 11:52:21;;;;;;;11.43;6.82;;;1.60;99.90;;;;;;5069386;28;20032;-76
2021/01/15 11:54:48;;;;;;;11.13;6.63;;;1.70;99.90;;;;;;5066007;28;20120;-78
2021/01/15 11:57:16;;;;;;;12.27;6.80;;;1.60;99.90;;;;;;5070618;28;20051;-78
2021/01/15 11:59:42;;;;;;;12.43;7.22;;;1.60;99.90;;;;;;5063790;28;20438;-79
2021/01/15 12:02:08;;;;;;;10.27;6.20;;;2.50;99.90;;;;;;5064139;28;20082;-77
2021/01/15 12:04:35;;;;;;;11.52;6.88;;;1.60;99.90;;;;;;5062613;28;20560;-80
2021/01/15 12:07:02;;;;;;;13.25;7.60;;;1.60;99.90;;;;;;5066653;28;20049;-81
2021/01/15 12:09:28;;;;;;;9.55;6.78;;;1.60;99.90;;;;;;5079489;28;20454;-79
2021/01/15 12:11:53;;;;;;;10.32;6.07;;;1.60;99.90;;;;;;5062184;28;20036;-79
2021/01/15 12:14:22;;;;;;;18.15;6.40;;;1.60;99.90;;;;;;5061130;28;20048;-78
2021/01/15 12:16:48;;;;;;;11.35;6.22;;;1.60;99.90;;;;;;5070056;28;20508;-77
2021/01/15 12:19:14;;;;;;;11.82;7.20;;;1.60;99.90;;;;;;5054417;28;20048;-77
2021/01/15 12:21:41;;;;;;;11.30;6.90;;;1.60;99.90;;;;;;5055297;28;20492;-76
2021/01/15 12:24:07;;;;;;;9.68;6.63;;;1.60;99.90;;;;;;5070133;28;20147;-76
2021/01/15 12:26:40;;;;;;;10.85;7.32;;;1.60;99.90;;;;;;5059078;28;20347;-77
2021/01/15 12:29:06;;;;;;;10.82;6.30;;;1.50;99.90;;;;;;5070815;28;20047;-81
2021/01/15 12:31:32;;;;;;;11.98;6.40;;;1.60;99.90;;;;;;5070036;28;20044;-78
2021/01/15 12:33:57;;;;;;;12.00;7.22;;;1.50;99.90;;;;;;5050442;28;20041;-77
2021/01/15 12:36:24;;;;;;;11.15;6.38;;;1.60;99.90;;;;;;5070693;28;20037;-80
2021/01/15 12:38:53;;;;;;;11.75;6.72;;;1.50;99.90;;;;;;5069134;28;20045;-79
2021/01/15 12:41:20;;;;;;;11.75;6.45;;;1.50;99.90;;;;;;5070158;28;20098;-76
2021/01/15 12:43:46;;;;;;;9.73;6.55;;;1.50;99.90;;;;;;5068866;28;20036;-78
2021/01/15 12:46:12;;;;;;;11.77;7.00;;;1.50;99.90;;;;;;5047725;28;20056;-79
2021/01/15 12:48:38;;;;;;;11.85;7.00;;;1.50;99.90;;;;;;5047333;28;20171;-79
2021/01/15 12:51:05;;;;;;;10.75;6.70;;;1.50;99.90;;;;;;5025920;28;20025;-79
2021/01/15 12:53:32;;;;;;;11.73;6.88;;;1.50;99.90;;;;;;5065801;28;20041;-78
2021/01/15 12:56:00;;;;;;;11.02;7.05;;;1.50;99.90;;;;;;5062567;28;20071;-76
2021/01/15 12:58:27;;;;;;;11.32;6.90;;;1.50;99.90;;;;;;5068032;28;20041;-79
2021/01/15 13:00:58;;;;;;;11.20;6.75;;;1.60;99.90;;;;;;5038090;28;20148;-79